Time;durP1;ratioP1;P1;durP2;ratioP2;P2;SDS_P1;SDS_P2;PMS_P1;PMS_P2;Temp;Humidity;BMP_temperature;BMP_pressure;BME280_temperature;BME280_humidity;BME280_pressure;Samples;Min_cycle;Max_cycle;Signal;HPM_P1;HPM_P2
2022/06/06 00:02:29;;;;;;;9.57;4.82;;;;;;;16.79;100.00;96513.81;5024498;28;20103;-48
2022/06/06 00:04:57;;;;;;;7.88;5.20;;;;;;;16.89;100.00;96509.06;5027673;28;20061;-50
2022/06/06 00:07:26;;;;;;;11.52;5.57;;;;;;;17.00;100.00;96505.97;5026266;28;20057;-48
2022/06/06 00:09:55;;;;;;;8.30;5.20;;;;;;;16.97;100.00;96508.97;5022904;28;20496;-47
2022/06/06 00:12:24;;;;;;;9.45;5.22;;;;;;;16.91;100.00;96492.91;5027600;28;20065;-44
2022/06/06 00:14:54;;;;;;;7.37;5.50;;;;;;;17.01;100.00;96506.78;5024963;28;20064;-52
2022/06/06 00:17:23;;;;;;;10.57;5.35;;;;;;;17.09;100.00;96504.84;5019805;28;20488;-50
2022/06/06 00:19:51;;;;;;;9.52;5.15;;;;;;;17.13;100.00;96501.81;5025881;28;20483;-49
2022/06/06 00:22:19;;;;;;;10.07;5.88;;;;;;;17.23;100.00;96499.69;5024351;28;20476;-54
2022/06/06 00:24:48;;;;;;;9.95;6.00;;;;;;;17.18;100.00;96513.56;5025643;28;20429;-53
2022/06/06 00:27:16;;;;;;;11.23;5.65;;;;;;;17.19;100.00;96503.75;5022784;28;20149;-45
2022/06/06 00:29:45;;;;;;;8.13;5.65;;;;;;;17.15;100.00;96519.28;5022986;28;20065;-54
2022/06/06 00:35:03;;;;;;;9.32;6.03;;;;;;;17.10;100.00;96524.31;5016934;28;20088;-50
2022/06/06 00:37:34;;;;;;;9.10;5.90;;;;;;;17.06;100.00;96523.03;5026255;28;20048;-50
2022/06/06 00:40:04;;;;;;;9.20;5.72;;;;;;;16.92;100.00;96524.69;5017372;28;20077;-49
2022/06/06 00:42:35;;;;;;;11.90;6.28;;;;;;;17.03;100.00;96524.25;5024392;28;20088;-46
2022/06/06 00:45:23;;;;;;;8.35;5.45;;;;;;;17.04;100.00;96519.75;5025156;28;20065;-46
2022/06/06 00:47:55;;;;;;;10.85;5.40;;;;;;;17.08;100.00;96529.00;5025854;28;20071;-47
2022/06/06 00:50:28;;;;;;;10.73;5.90;;;;;;;16.96;100.00;96527.81;5022640;28;20073;-53
2022/06/06 00:52:57;;;;;;;9.43;5.43;;;;;;;17.04;100.00;96528.56;5025591;28;20070;-52
2022/06/06 00:55:29;;;;;;;9.02;5.47;;;;;;;16.97;100.00;96532.13;5023437;28;20060;-47
2022/06/06 00:58:01;;;;;;;9.23;5.47;;;;;;;17.06;100.00;96536.34;5023782;28;20103;-51
2022/06/06 01:00:30;;;;;;;8.00;5.47;;;;;;;17.04;100.00;96536.53;5019410;28;21484;-48
2022/06/06 01:03:03;;;;;;;7.05;5.28;;;;;;;16.81;100.00;96539.28;5026977;28;20068;-45
2022/06/06 01:05:32;;;;;;;8.50;5.10;;;;;;;16.95;100.00;96536.81;5023792;28;20164;-50
2022/06/06 01:08:00;;;;;;;11.48;5.05;;;;;;;16.95;100.00;96536.81;5020844;28;20064;-49
2022/06/06 01:10:29;;;;;;;11.50;5.53;;;;;;;17.27;100.00;96532.94;5019858;28;20076;-54
2022/06/06 01:12:57;;;;;;;9.82;5.43;;;;;;;16.89;100.00;96534.88;5030502;28;20085;-43
2022/06/06 01:15:31;;;;;;;7.03;5.18;;;;;;;16.98;100.00;96539.94;5016355;28;20515;-52
2022/06/06 01:18:06;;;;;;;10.05;6.10;;;;;;;17.00;100.00;96535.25;5025948;28;20065;-51
2022/06/06 01:21:08;;;;;;;7.70;5.78;;;;;;;16.97;100.00;96534.81;5023300;28;20069;-48
2022/06/06 01:24:08;;;;;;;9.30;5.72;;;;;;;16.77;100.00;96530.00;5025163;28;20067;-53
2022/06/06 01:26:54;;;;;;;6.53;5.20;;;;;;;16.65;100.00;96536.72;5021767;28;20068;-49
2022/06/06 01:29:26;;;;;;;10.23;5.40;;;;;;;16.87;100.00;96536.91;5021736;28;20347;-52
2022/06/06 01:31:58;;;;;;;8.13;4.80;;;;;;;16.76;100.00;96539.00;5025619;28;20064;-51
2022/06/06 01:34:28;;;;;;;5.50;4.50;;;;;;;16.79;100.00;96543.13;5022504;28;20057;-50
2022/06/06 01:36:58;;;;;;;8.77;5.35;;;;;;;16.84;100.00;96543.41;5025678;28;20090;-47
2022/06/06 01:39:28;;;;;;;9.27;5.30;;;;;;;16.76;100.00;96540.84;5021785;28;20478;-53
2022/06/06 01:42:06;;;;;;;8.77;5.40;;;;;;;16.86;100.00;96533.38;5018869;28;20495;-45
2022/06/06 01:44:40;;;;;;;7.35;5.50;;;;;;;16.88;100.00;96531.38;5023667;28;20064;-47
2022/06/06 01:47:12;;;;;;;8.68;5.10;;;;;;;16.96;100.00;96527.81;5023891;28;20080;-47
2022/06/06 01:49:42;;;;;;;7.63;4.82;;;;;;;17.06;100.00;96525.69;5024790;28;20496;-46
2022/06/06 01:52:13;;;;;;;5.65;5.05;;;;;;;16.94;100.00;96532.50;5018373;28;20100;-46
2022/06/06 01:54:42;;;;;;;7.53;4.50;;;;;;;16.87;100.00;96528.91;5025082;28;20099;-46
2022/06/06 01:57:13;;;;;;;7.35;5.05;;;;;;;16.96;100.00;96523.28;5022253;28;20074;-47
2022/06/06 01:59:43;;;;;;;6.50;4.50;;;;;;;16.93;100.00;96528.16;5023475;28;20073;-49
2022/06/06 02:02:11;;;;;;;9.65;5.10;;;;;;;16.97;100.00;96522.31;5025874;28;20475;-46
2022/06/06 02:04:39;;;;;;;9.32;4.90;;;;;;;17.05;100.00;96524.03;5025648;28;20081;-46
2022/06/06 02:07:08;;;;;;;10.00;4.45;;;;;;;17.01;100.00;96528.09;5023649;28;20081;-48
2022/06/06 02:09:36;;;;;;;6.30;4.90;;;;;;;17.17;100.00;96522.59;5021026;28;20089;-49
2022/06/06 02:12:05;;;;;;;7.10;4.78;;;;;;;17.05;100.00;96524.88;5020506;28;20076;-53
2022/06/06 02:14:34;;;;;;;6.10;4.68;;;;;;;16.81;100.00;96520.63;5020326;28;20076;-50
2022/06/06 02:17:06;;;;;;;7.63;4.70;;;;;;;17.01;100.00;96530.75;5024711;28;20531;-53
2022/06/06 02:19:35;;;;;;;5.95;4.50;;;;;;;16.96;100.00;96531.28;5021273;28;20469;-49
2022/06/06 02:22:04;;;;;;;6.20;4.60;;;;;;;17.07;100.00;96533.53;5023685;28;20048;-51
2022/06/06 02:24:32;;;;;;;4.63;4.13;;;;;;;17.04;100.00;96531.22;5025660;28;20179;-53
2022/06/06 02:27:00;;;;;;;8.38;4.70;;;;;;;17.17;100.00;96541.25;5024693;28;20461;-46
2022/06/06 02:29:29;;;;;;;6.20;4.55;;;;;;;17.22;100.00;96533.50;5029613;28;20065;-51
2022/06/06 02:31:57;;;;;;;6.03;4.80;;;;;;;17.11;100.00;96533.97;5026148;28;20068;-50
2022/06/06 02:34:27;;;;;;;7.18;4.78;;;;;;;17.15;100.00;96532.59;5019193;28;20173;-49
2022/06/06 02:36:56;;;;;;;5.00;4.50;;;;;;;16.99;100.00;96536.25;5028770;28;20073;-51
2022/06/06 02:39:24;;;;;;;8.73;4.90;;;;;;;16.81;100.00;96525.94;5025898;28;20317;-49
2022/06/06 02:41:53;;;;;;;6.32;4.72;;;;;;;16.63;100.00;96533.44;5024464;28;20077;-55
2022/06/06 02:44:21;;;;;;;9.13;5.00;;;;;;;16.80;100.00;96534.97;5029062;28;20057;-51
2022/06/06 02:46:50;;;;;;;6.63;4.70;;;;;;;16.88;100.00;96536.72;5027523;28;20108;-51
2022/06/06 02:49:18;;;;;;;5.68;4.70;;;;;;;17.03;100.00;96540.22;5024363;28;20092;-48
2022/06/06 02:51:48;;;;;;;6.80;4.72;;;;;;;17.01;100.00;96531.59;5028171;28;20459;-51
2022/06/06 02:54:16;;;;;;;7.13;4.80;;;;;;;17.04;100.00;96541.88;5023596;28;20068;-46
2022/06/06 02:56:45;;;;;;;7.50;4.93;;;;;;;17.02;100.00;96545.72;5026711;28;21054;-47
2022/06/06 02:59:17;;;;;;;6.47;4.20;;;;;;;17.06;100.00;96549.66;5026743;28;20068;-51
2022/06/06 03:01:45;;;;;;;6.40;4.70;;;;;;;17.07;100.00;96549.50;5025127;28;20088;-52
2022/06/06 03:04:14;;;;;;;8.35;5.13;;;;;;;17.06;100.00;96552.34;5021081;28;20087;-50
2022/06/06 03:06:54;;;;;;;6.22;4.68;;;;;;;16.97;100.00;96556.94;5023909;28;20085;-48
2022/06/06 03:09:26;;;;;;;;;;;;;;;16.67;100.00;96548.03;5000578;28;20089;-49
2022/06/06 03:12:12;;;;;;;7.72;5.00;;;;;;;16.47;100.00;96557.53;5005624;28;19969;-47
2022/06/06 03:15:07;;;;;;;6.47;5.00;;;;;;;16.71;100.00;96561.81;5004983;28;20502;-50
2022/06/06 03:20:47;;;;;;;6.85;4.65;;;;;;;16.72;100.00;96561.63;4999608;28;20077;-53
2022/06/06 03:23:23;;;;;;;;;;;;;;;16.79;100.00;96572.41;5007509;28;20688;-48
2022/06/06 03:25:59;;;;;;;8.25;4.63;;;;;;;16.79;100.00;96575.94;5006768;28;19961;-49
2022/06/06 03:28:32;;;;;;;8.10;4.75;;;;;;;16.84;100.00;96576.19;5004335;28;20065;-50
2022/06/06 03:31:12;;;;;;;5.18;4.55;;;;;;;16.82;100.00;96574.72;5004324;28;20082;-52
2022/06/06 03:33:48;;;;;;;7.55;4.88;;;;;;;16.94;100.00;96577.78;5006846;28;20077;-50
2022/06/06 03:36:20;;;;;;;8.10;5.10;;;;;;;16.80;100.00;96579.41;5000208;28;20077;-46
2022/06/06 03:38:56;;;;;;;7.68;5.40;;;;;;;16.88;100.00;96586.50;5006666;28;20062;-47
2022/06/06 03:41:31;;;;;;;5.75;5.20;;;;;;;16.92;100.00;96579.78;5017976;28;20065;-53
2022/06/06 03:44:10;;;;;;;6.13;4.90;;;;;;;17.13;100.00;96579.09;5028052;28;20136;-50
2022/06/06 03:46:45;;;;;;;7.90;4.60;;;;;;;17.09;100.00;96584.78;5022092;28;20062;-47
2022/06/06 03:49:19;;;;;;;7.88;4.97;;;;;;;17.12;100.00;96586.25;5026970;28;20675;-48
2022/06/06 03:51:59;;;;;;;6.70;4.80;;;;;;;17.21;100.00;96590.50;5025153;28;20080;-45
2022/06/06 03:54:37;;;;;;;6.38;5.05;;;;;;;17.30;100.00;96591.22;5024181;28;20443;-46
2022/06/06 03:57:13;;;;;;;8.20;5.00;;;;;;;17.49;100.00;96590.69;5010401;28;20058;-49
2022/06/06 03:59:43;;;;;;;6.10;5.50;;;;;;;18.57;100.00;96578.34;5007160;28;20062;-46
2022/06/06 04:02:15;;;;;;;8.25;5.07;;;;;;;19.55;100.00;96573.94;5005005;28;20069;-45
2022/06/06 04:04:43;;;;;;;5.25;4.47;;;;;;;20.28;100.00;96558.16;5006997;28;20061;-48
2022/06/06 04:07:12;;;;;;;4.50;4.10;;;;;;;19.85;100.00;96571.00;5022338;28;20084;-47
2022/06/06 04:09:41;;;;;;;5.55;4.22;;;;;;;20.86;100.00;96560.31;5021167;28;20076;-51
2022/06/06 04:12:19;;;;;;;4.70;4.30;;;;;;;21.37;100.00;96556.13;5023995;28;20068;-50
2022/06/06 04:14:53;;;;;;;5.00;3.90;;;;;;;21.46;100.00;96566.44;5024501;28;20131;-47
2022/06/06 04:17:37;;;;;;;4.43;4.03;;;;;;;22.12;100.00;96551.09;5018889;28;20054;-47
2022/06/06 04:20:20;;;;;;;5.65;3.13;;;;;;;20.65;100.00;96561.34;5023505;28;20073;-47
2022/06/06 04:23:03;;;;;;;6.13;3.20;;;;;;;20.42;100.00;96567.06;5019949;28;20073;-51
2022/06/06 04:25:41;;;;;;;6.80;3.38;;;;;;;20.26;100.00;96560.22;5020456;28;20079;-50
2022/06/06 04:28:14;;;;;;;6.35;3.67;;;;;;;20.51;100.00;96571.22;5021430;28;20088;-46
2022/06/06 04:30:48;;;;;;;5.40;4.90;;;;;;;21.20;100.00;96561.09;5024467;28;20078;-49
2022/06/06 04:33:20;;;;;;;5.30;4.72;;;;;;;22.41;100.00;96552.41;5022185;28;20068;-54
2022/06/06 04:36:03;;;;;;;5.82;4.22;;;;;;;23.36;100.00;96555.75;5018506;28;20057;-53
2022/06/06 04:38:40;;;;;;;4.60;4.20;;;;;;;23.06;100.00;96557.53;5023509;28;20061;-46
2022/06/06 04:41:16;;;;;;;4.40;3.83;;;;;;;22.90;100.00;96558.84;5021461;28;20077;-52
2022/06/06 04:43:49;;;;;;;5.63;3.10;;;;;;;21.32;100.00;96562.09;5023705;28;20854;-48
2022/06/06 04:46:22;;;;;;;2.80;2.58;;;;;;;21.35;100.00;96555.53;5022146;28;20061;-49
2022/06/06 04:48:52;;;;;;;6.00;3.28;;;;;;;21.08;100.00;96564.41;5022576;28;20081;-50
2022/06/06 04:51:22;;;;;;;3.63;2.67;;;;;;;21.43;100.00;96564.16;5022282;28;20535;-52
2022/06/06 04:53:53;;;;;;;6.03;3.03;;;;;;;21.43;100.00;96552.63;5023750;28;20041;-46
2022/06/06 04:56:24;;;;;;;4.45;3.10;;;;;;;21.37;100.00;96566.84;5024936;28;20077;-55
2022/06/06 04:58:54;;;;;;;4.93;3.00;;;;;;;20.91;100.00;96568.53;5024308;28;20053;-48
2022/06/06 05:01:24;;;;;;;4.57;3.90;;;;;;;22.36;100.00;96558.41;5025242;28;20053;-45
2022/06/06 05:03:53;;;;;;;3.97;2.97;;;;;;;21.21;100.00;96576.16;5015701;28;20076;-47
2022/06/06 05:06:38;;;;;;;5.45;4.43;;;;;;;22.86;100.00;96555.78;5021645;28;20535;-51
2022/06/06 05:09:21;;;;;;;4.28;3.88;;;;;;;24.26;100.00;96551.56;5020913;28;20073;-47
2022/06/06 05:11:57;;;;;;;5.65;3.65;;;;;;;24.82;100.00;96561.97;5019666;28;20481;-52
2022/06/06 05:14:39;;;;;;;5.72;3.58;;;;;;;23.73;100.00;96566.56;5020272;28;20530;-48
2022/06/06 05:17:17;;;;;;;4.57;3.53;;;;;;;23.15;100.00;96562.38;5017061;28;20061;-52
2022/06/06 05:20:10;;;;;;;3.70;3.30;;;;;;;23.77;100.00;96564.25;5022052;28;20076;-50
2022/06/06 05:22:58;;;;;;;3.60;2.92;;;;;;;24.90;100.00;96559.97;5021187;28;20111;-51
2022/06/06 05:25:39;;;;;;;5.78;3.47;;;;;;;24.43;100.00;96563.38;5020291;28;20504;-46
2022/06/06 05:28:22;;;;;;;3.92;3.15;;;;;;;22.94;100.00;96565.47;5023454;28;20088;-50
2022/06/06 05:30:54;;;;;;;4.35;3.13;;;;;;;24.49;100.00;96565.16;5021794;28;20523;-49
2022/06/06 05:33:27;;;;;;;3.83;2.90;;;;;;;24.54;100.00;96556.41;5020969;28;20239;-48
2022/06/06 05:36:16;;;;;;;4.75;3.42;;;;;;;24.27;100.00;96574.81;5020782;28;20072;-53
2022/06/06 05:39:03;;;;;;;3.08;2.33;;;;;;;24.49;100.00;96575.13;5019431;28;20802;-51
2022/06/06 05:41:41;;;;;;;3.42;2.60;;;;;;;23.32;100.00;96572.56;5036436;28;20054;-47
2022/06/06 05:44:15;;;;;;;2.80;2.42;;;;;;;23.46;100.00;96574.88;5020263;28;20112;-48
2022/06/06 05:46:50;;;;;;;5.15;2.90;;;;;;;23.35;100.00;96570.25;5018632;28;20065;-50
2022/06/06 05:49:28;;;;;;;3.95;2.65;;;;;;;22.59;100.00;96576.66;5018186;28;20065;-50
2022/06/06 05:52:07;;;;;;;3.30;2.60;;;;;;;22.20;100.00;96588.50;5023716;28;20119;-48
2022/06/06 05:54:47;;;;;;;3.63;3.00;;;;;;;22.02;100.00;96583.78;5021981;28;20424;-44
2022/06/06 05:57:48;;;;;;;4.65;2.83;;;;;;;21.73;100.00;96593.19;5024990;28;20070;-43
2022/06/06 06:00:25;;;;;;;4.10;3.08;;;;;;;22.09;100.00;96589.94;4999173;28;20073;-47
2022/06/06 06:03:25;;;;;;;4.50;3.00;;;;;;;22.41;100.00;96590.03;5021199;28;20069;-45
2022/06/06 06:06:08;;;;;;;4.72;3.00;;;;;;;22.15;100.00;96591.81;5002063;28;20064;-47
2022/06/06 06:08:51;;;;;;;3.67;3.13;;;;;;;21.95;100.00;96591.03;5020098;28;20061;-51
2022/06/06 06:11:42;;;;;;;3.90;3.28;;;;;;;21.56;100.00;96590.97;5023139;28;20057;-45
2022/06/06 06:14:20;;;;;;;4.32;3.17;;;;;;;22.20;100.00;96585.81;5022604;28;20072;-45
2022/06/06 06:16:54;;;;;;;8.40;3.20;;;;;;;22.55;100.00;96588.09;5020467;28;20065;-51
2022/06/06 06:19:27;;;;;;;6.30;3.17;;;;;;;22.16;100.00;96584.56;5024201;28;20065;-49
2022/06/06 06:21:58;;;;;;;4.18;3.33;;;;;;;21.87;100.00;96588.59;5022897;28;20050;-49
2022/06/06 06:24:30;;;;;;;5.15;3.50;;;;;;;22.42;100.00;96573.66;5022288;28;20439;-51
2022/06/06 06:26:59;;;;;;;4.45;3.35;;;;;;;22.35;100.00;96582.81;5024475;28;20077;-51
2022/06/06 06:29:27;;;;;;;5.43;3.55;;;;;;;22.14;100.00;96583.94;5027326;28;20069;-50
2022/06/06 06:32:10;;;;;;;3.88;3.47;;;;;;;22.26;100.00;96579.56;5020611;28;20065;-50
2022/06/06 06:34:49;;;;;;;5.65;3.80;;;;;;;22.75;100.00;96583.38;5024099;28;20068;-49
2022/06/06 06:37:29;;;;;;;5.25;3.75;;;;;;;22.27;100.00;96586.59;5025203;28;20088;-48
2022/06/06 06:40:07;;;;;;;5.25;3.65;;;;;;;22.79;100.00;96581.91;5019901;28;20196;-46
2022/06/06 06:43:03;;;;;;;6.93;4.10;;;;;;;22.51;100.00;96583.13;5020923;28;21480;-44
2022/06/06 06:45:36;;;;;;;5.60;3.72;;;;;;;22.29;100.00;96584.50;5023360;28;20507;-48
2022/06/06 06:48:12;;;;;;;5.32;3.78;;;;;;;22.78;100.00;96585.66;5023269;28;20104;-53
2022/06/06 06:50:49;;;;;;;4.88;3.80;;;;;;;22.66;100.00;96582.00;5023749;28;20061;-52
2022/06/06 06:53:32;;;;;;;5.60;4.10;;;;;;;23.15;100.00;96589.28;5022839;28;20053;-47
2022/06/06 06:56:07;;;;;;;5.13;3.85;;;;;;;23.14;100.00;96594.88;5024022;28;20632;-48
2022/06/06 06:58:54;;;;;;;5.25;3.75;;;;;;;22.79;100.00;96587.28;5023256;28;20053;-50
2022/06/06 07:01:29;;;;;;;7.45;4.13;;;;;;;23.06;100.00;96590.63;5022812;28;20530;-47
2022/06/06 07:10:10;;;;;;;5.82;3.92;;;;;;;24.05;100.00;96577.16;5022071;28;20081;-53
2022/06/06 07:13:02;;;;;;;5.47;3.85;;;;;;;24.09;100.00;96576.50;5022251;28;21532;-51
2022/06/06 07:15:40;;;;;;;5.65;3.80;;;;;;;23.98;100.00;96569.16;5026646;28;21147;-46
2022/06/06 07:18:11;;;;;;;5.05;3.92;;;;;;;23.56;100.00;96568.16;5027413;28;20076;-47
2022/06/06 07:20:42;;;;;;;5.00;4.20;;;;;;;24.04;100.00;96570.94;5028696;28;20080;-47
2022/06/06 07:23:12;;;;;;;4.28;3.88;;;;;;;24.42;100.00;96571.72;5021852;28;20625;-48
2022/06/06 07:25:42;;;;;;;6.80;4.35;;;;;;;25.02;100.00;96577.84;5028044;28;20549;-53
2022/06/06 07:28:11;;;;;;;;;;;;;;;24.75;100.00;96572.03;5029506;28;20084;-52
2022/06/06 07:30:42;;;;;;;5.47;3.97;;;;;;;25.07;100.00;96574.44;5026338;28;20434;-49
2022/06/06 07:33:23;;;;;;;6.72;3.83;;;;;;;25.56;100.00;96566.94;5027685;28;20141;-48
2022/06/06 07:36:00;;;;;;;5.22;3.63;;;;;;;25.88;100.00;96577.34;5024673;28;20061;-48
2022/06/06 07:38:37;;;;;;;4.25;3.72;;;;;;;26.28;100.00;96572.75;5023066;28;20066;-49
2022/06/06 07:41:15;;;;;;;5.05;3.75;;;;;;;26.67;100.00;96574.81;5025702;28;20152;-46
2022/06/06 07:44:04;;;;;;;4.65;3.80;;;;;;;27.13;100.00;96572.94;5027795;28;20068;-53
2022/06/06 07:46:41;;;;;;;6.55;3.55;;;;;;;27.52;100.00;96573.75;5022409;28;20057;-49
2022/06/06 07:49:19;;;;;;;4.70;3.83;;;;;;;26.59;100.00;96572.53;5025705;28;20076;-48
2022/06/06 07:51:53;;;;;;;5.35;3.38;;;;;;;27.90;100.00;96569.41;5026557;28;20085;-49
2022/06/06 07:54:38;;;;;;;4.85;3.72;;;;;;;26.51;100.00;96574.56;5027607;28;20536;-43
2022/06/06 07:57:30;;;;;;;5.28;4.00;;;;;;;25.25;100.00;96578.91;5026031;28;20515;-47
2022/06/06 08:00:04;;;;;;;6.72;3.70;;;;;;;26.05;100.00;96575.56;5026524;28;20745;-50
2022/06/06 08:02:48;;;;;;;3.63;3.30;;;;;;;25.50;100.00;96581.41;5024393;28;20544;-46
2022/06/06 08:05:45;;;;;;;6.90;3.60;;;;;;;25.12;100.00;96577.28;5026039;28;20046;-51
2022/06/06 08:08:25;;;;;;;4.05;3.13;;;;;;;25.03;100.00;96575.94;5023366;28;20061;-48
2022/06/06 08:10:53;;;;;;;;;;;;;;;24.96;100.00;96576.06;5023875;28;20073;-49
2022/06/06 08:13:31;;;;;;;4.78;3.65;;;;;;;25.51;100.00;96569.53;5026579;28;19976;-51
2022/06/06 08:16:22;;;;;;;5.55;3.40;;;;;;;25.48;100.00;96572.69;5024229;28;20088;-49
2022/06/06 08:19:07;;;;;;;4.20;3.38;;;;;;;26.30;100.00;96563.59;5023394;28;20068;-55
2022/06/06 08:21:39;;;;;;;4.95;3.60;;;;;;;26.42;100.00;96569.75;5024234;28;20499;-49
2022/06/06 08:24:13;;;;;;;4.93;3.50;;;;;;;26.26;100.00;96572.19;5020342;28;20452;-47
2022/06/06 08:27:03;;;;;;;3.63;3.17;;;;;;;26.64;100.00;96572.63;5022605;28;20061;-50
2022/06/06 08:29:36;;;;;;;4.45;3.67;;;;;;;25.71;100.00;96578.06;5025882;28;20057;-46
2022/06/06 08:32:05;;;;;;;5.18;3.65;;;;;;;26.60;100.00;96568.75;5025003;28;20069;-50
2022/06/06 08:34:34;;;;;;;4.20;3.30;;;;;;;27.20;100.00;96563.56;5024795;28;20069;-51
2022/06/06 08:37:15;;;;;;;5.28;3.60;;;;;;;26.91;100.00;96575.50;5024961;28;20085;-52
2022/06/06 08:39:52;;;;;;;6.35;3.60;;;;;;;27.05;100.00;96574.13;5025711;28;20092;-51
2022/06/06 08:42:41;;;;;;;4.90;3.45;;;;;;;27.68;100.00;96564.78;5025627;28;20562;-48
2022/06/06 08:45:32;;;;;;;5.28;3.47;;;;;;;27.39;100.00;96564.13;5023512;28;20068;-49
2022/06/06 08:48:12;;;;;;;4.60;3.50;;;;;;;26.12;100.00;96567.28;5022078;28;20068;-51
2022/06/06 08:51:01;;;;;;;4.95;3.00;;;;;;;26.82;100.00;96555.34;5022104;28;20502;-45
2022/06/06 08:53:53;;;;;;;6.03;3.20;;;;;;;26.83;100.00;96552.38;5026784;28;20065;-52
2022/06/06 08:57:00;;;;;;;4.55;3.45;;;;;;;27.39;100.00;96556.00;5024705;28;20076;-52
2022/06/06 09:00:11;;;;;;;4.00;3.58;;;;;;;27.23;100.00;96564.16;5026296;28;20071;-51
2022/06/06 09:03:15;;;;;;;4.15;3.63;;;;;;;27.04;100.00;96558.94;5025096;28;20041;-45
2022/06/06 09:06:03;;;;;;;4.90;3.55;;;;;;;26.97;100.00;96561.00;5025097;28;20072;-48
2022/06/06 09:09:02;;;;;;;4.28;3.88;;;;;;;26.69;100.00;96562.69;5025004;28;20073;-45
2022/06/06 09:12:10;;;;;;;4.18;3.30;;;;;;;26.49;100.00;96557.75;5027890;28;20520;-46
2022/06/06 09:15:30;;;;;;;6.05;4.10;;;;;;;26.90;100.00;96554.94;5002479;28;20069;-47
2022/06/06 09:18:21;;;;;;;7.18;4.05;;;;;;;27.87;100.00;96554.50;4945227;28;20075;-49
2022/06/06 09:21:31;;;;;;;4.80;3.38;;;;;;;26.81;100.00;96549.13;4942604;28;20065;-47
2022/06/06 09:24:28;;;;;;;4.17;3.67;;;;;;;27.79;100.00;96543.25;4979147;28;20073;-51
2022/06/06 09:27:31;;;;;;;5.25;3.30;;;;;;;28.25;100.00;96546.50;4983488;28;20078;-46
2022/06/06 09:30:12;;;;;;;5.40;3.40;;;;;;;27.76;100.00;96550.00;4998865;28;20080;-49
2022/06/06 09:33:10;;;;;;;9.90;5.10;;;;;;;27.22;100.00;96549.78;5019179;28;20069;-49
2022/06/06 09:35:41;;;;;;;4.90;3.50;;;;;;;27.69;100.00;96550.16;5022307;28;20069;-46
2022/06/06 09:38:20;;;;;;;4.45;3.80;;;;;;;26.65;100.00;96542.63;5022943;28;20524;-47
2022/06/06 09:41:00;;;;;;;6.10;4.00;;;;;;;26.19;100.00;96538.25;5022028;28;20068;-48
2022/06/06 09:43:56;;;;;;;4.40;3.80;;;;;;;26.68;100.00;96534.00;5021887;28;20062;-48
2022/06/06 09:47:09;;;;;;;5.15;3.60;;;;;;;27.27;100.00;96530.91;5022357;28;20072;-47
2022/06/06 09:50:12;;;;;;;5.47;3.63;;;;;;;26.91;100.00;96534.91;4983399;28;20066;-51
2022/06/06 09:53:16;;;;;;;4.18;3.60;;;;;;;27.12;100.00;96531.50;5021704;28;20758;-44
2022/06/06 09:59:53;;;;;;;4.28;3.40;;;;;;;26.40;100.00;96539.44;5023715;28;20581;-50
2022/06/06 10:02:59;;;;;;;4.45;3.30;;;;;;;25.97;100.00;96535.38;4986428;28;20094;-51
2022/06/06 10:06:04;;;;;;;4.97;3.75;;;;;;;26.36;100.00;96535.56;5024082;28;20065;-46
2022/06/06 10:09:15;;;;;;;4.88;3.42;;;;;;;26.14;100.00;96538.16;5016122;28;20073;-47
2022/06/06 10:12:12;;;;;;;5.40;3.53;;;;;;;26.27;100.00;96527.84;5025397;28;20061;-49
2022/06/06 10:15:03;;;;;;;3.60;2.95;;;;;;;26.25;100.00;96529.97;5023923;28;20080;-47
2022/06/06 10:17:52;;;;;;;3.80;3.50;;;;;;;26.13;100.00;96529.22;5013197;28;20073;-47
2022/06/06 10:20:36;;;;;;;3.92;3.33;;;;;;;26.84;100.00;96526.97;5024408;28;20065;-47
2022/06/06 10:23:26;;;;;;;4.45;3.53;;;;;;;26.22;100.00;96527.78;5019464;28;20100;-53
2022/06/06 10:26:57;;;;;;;4.78;3.40;;;;;;;26.12;100.00;96526.75;5020676;28;20070;-53
2022/06/06 10:30:13;;;;;;;4.72;3.30;;;;;;;26.62;100.00;96521.47;4963160;28;20125;-47
2022/06/06 10:33:05;;;;;;;3.95;3.15;;;;;;;26.52;100.00;96508.56;4962132;28;20070;-47
2022/06/06 10:35:44;;;;;;;4.53;3.65;;;;;;;26.86;100.00;96503.19;5018462;28;20065;-47
2022/06/06 10:38:33;;;;;;;3.78;3.40;;;;;;;25.72;100.00;96508.66;5021534;28;20064;-55
2022/06/06 10:41:08;;;;;;;5.07;3.50;;;;;;;27.29;100.00;96503.56;5021692;28;20069;-54
2022/06/06 10:43:43;;;;;;;4.32;3.25;;;;;;;27.12;100.00;96498.16;5024006;28;20432;-50
2022/06/06 10:46:18;;;;;;;4.03;3.15;;;;;;;26.65;100.00;96499.34;5028458;28;20525;-53
2022/06/06 10:49:03;;;;;;;4.43;3.50;;;;;;;27.15;100.00;96503.09;5023122;28;20081;-51
2022/06/06 10:52:19;;;;;;;4.60;3.47;;;;;;;27.84;100.00;96498.09;5025655;28;21486;-49
2022/06/06 10:55:23;;;;;;;4.30;2.97;;;;;;;26.70;100.00;96496.72;5027728;28;20611;-45
2022/06/06 10:58:46;;;;;;;3.78;3.20;;;;;;;26.60;100.00;96496.56;5017250;28;21232;-49
2022/06/06 11:02:00;;;;;;;3.40;3.00;;;;;;;27.69;100.00;96489.72;5012764;28;20430;-56
2022/06/06 11:05:11;;;;;;;4.50;3.10;;;;;;;27.06;100.00;96491.03;5023550;28;20094;-50
2022/06/06 11:08:11;;;;;;;3.95;2.80;;;;;;;26.95;100.00;96488.19;5023102;28;20073;-53
2022/06/06 11:11:04;;;;;;;3.38;2.85;;;;;;;27.77;100.00;96494.75;5027209;28;20069;-50
2022/06/06 11:13:44;;;;;;;5.35;2.80;;;;;;;28.00;100.00;96480.06;5024206;28;20065;-46
2022/06/06 11:16:52;;;;;;;4.93;2.90;;;;;;;28.36;100.00;96475.03;5023934;28;20081;-56
2022/06/06 11:19:57;;;;;;;3.95;3.13;;;;;;;28.36;100.00;96480.44;5025934;28;20076;-54
2022/06/06 11:22:32;;;;;;;4.88;2.70;;;;;;;27.69;100.00;96482.41;5025253;28;20061;-45
2022/06/06 11:25:08;;;;;;;3.28;2.67;;;;;;;28.14;99.01;96475.06;5026199;28;20103;-49
2022/06/06 11:28:14;;;;;;;6.88;2.80;;;;;;;28.67;96.65;96486.19;5029417;28;20096;-49
2022/06/06 11:31:05;;;;;;;5.22;3.13;;;;;;;27.68;100.00;96472.66;5027482;28;20081;-50
2022/06/06 11:34:35;;;;;;;4.05;2.67;;;;;;;28.80;100.00;96478.41;5026789;28;20045;-52
2022/06/06 11:38:00;;;;;;;4.40;2.70;;;;;;;27.90;100.00;96469.13;5002192;28;20049;-51
2022/06/06 11:40:48;;;;;;;3.33;2.63;;;;;;;28.19;100.00;96466.19;5006294;28;20125;-49
2022/06/06 11:43:32;;;;;;;3.70;2.70;;;;;;;27.80;100.00;96469.81;5022364;28;20554;-55
2022/06/06 11:46:39;;;;;;;3.13;2.83;;;;;;;27.69;100.00;96466.16;5023843;28;20092;-52
2022/06/06 11:49:36;;;;;;;5.25;3.00;;;;;;;28.38;100.00;96462.00;5017804;28;20089;-46
2022/06/06 11:52:56;;;;;;;4.05;2.70;;;;;;;28.98;99.10;96455.44;5023981;28;20085;-55
2022/06/06 11:55:35;;;;;;;5.68;2.60;;;;;;;28.96;91.44;96457.59;4998343;28;20077;-50
2022/06/06 11:58:34;;;;;;;4.65;2.63;;;;;;;29.29;83.88;96455.66;5002392;28;20073;-51
2022/06/06 12:01:25;;;;;;;3.72;2.83;;;;;;;29.21;96.72;96454.25;5026319;28;20077;-49
2022/06/06 12:04:07;;;;;;;3.88;2.13;;;;;;;29.02;94.19;96456.59;5026169;28;20073;-54
2022/06/06 12:07:12;;;;;;;2.60;2.40;;;;;;;29.46;92.14;96447.31;5027274;28;20225;-49
2022/06/06 12:09:48;;;;;;;2.97;2.47;;;;;;;29.11;100.00;96448.75;5024153;28;21514;-52
2022/06/06 12:12:46;;;;;;;3.50;2.70;;;;;;;28.55;100.00;96445.63;5030061;28;20061;-48
2022/06/06 12:15:38;;;;;;;3.40;2.38;;;;;;;28.72;100.00;96442.78;5017913;28;20073;-49
2022/06/06 12:18:22;;;;;;;2.95;2.50;;;;;;;27.61;100.00;96436.81;5023841;28;20523;-49
2022/06/06 12:21:23;;;;;;;4.70;2.65;;;;;;;28.13;100.00;96432.78;5027088;28;20496;-52
2022/06/06 12:24:12;;;;;;;4.55;2.60;;;;;;;28.50;100.00;96424.72;5019831;28;20073;-50
2022/06/06 12:27:07;;;;;;;2.92;2.60;;;;;;;28.55;100.00;96424.75;5022410;28;20069;-46
2022/06/06 12:30:14;;;;;;;5.55;2.70;;;;;;;28.34;100.00;96409.34;5026278;28;20038;-48
2022/06/06 12:33:02;;;;;;;3.30;2.55;;;;;;;28.33;100.00;96411.25;5010589;28;20068;-51
2022/06/06 12:35:41;;;;;;;3.17;2.65;;;;;;;28.14;100.00;96413.53;5024297;28;20065;-52
2022/06/06 12:38:27;;;;;;;5.00;2.67;;;;;;;28.32;100.00;96422.34;5021093;28;20060;-48
2022/06/06 12:41:07;;;;;;;5.65;2.90;;;;;;;28.14;100.00;96412.69;5027252;28;20085;-52
2022/06/06 12:43:45;;;;;;;5.07;2.88;;;;;;;27.87;100.00;96410.00;5022414;28;20087;-46
2022/06/06 12:46:33;;;;;;;;;;;;;;;28.58;100.00;96415.28;5019645;28;20088;-47
2022/06/06 12:49:16;;;;;;;3.13;2.83;;;;;;;27.77;100.00;96412.59;5010642;28;19945;-47